createdAt,value
2018-05-15T00:00:34.125Z,20.70
2018-05-15T00:01:34.075Z,20.72
2018-05-15T00:02:34.012Z,20.67
2018-05-15T00:03:33.981Z,20.84
2018-05-15T00:04:33.918Z,20.75
2018-05-15T00:05:33.874Z,20.85
2018-05-15T00:06:33.848Z,20.80
2018-05-15T00:07:33.788Z,20.78
2018-05-15T00:08:33.762Z,20.90
2018-05-15T00:09:33.722Z,20.85
2018-05-15T00:10:33.666Z,20.85
2018-05-15T00:11:33.605Z,20.90
2018-05-15T00:12:33.589Z,20.80
2018-05-15T00:13:33.501Z,20.78
2018-05-15T00:14:33.465Z,20.72
2018-05-15T00:15:33.415Z,20.66
2018-05-15T00:16:33.397Z,20.67
2018-05-15T00:17:33.325Z,20.74
2018-05-15T00:18:33.287Z,20.62
2018-05-15T00:19:33.266Z,20.67
2018-05-15T00:20:33.216Z,20.69
2018-05-15T00:21:33.157Z,20.72
2018-05-15T00:22:33.114Z,20.70
2018-05-15T00:23:33.055Z,20.70
2018-05-15T00:24:33.050Z,20.69
2018-05-15T00:25:32.966Z,20.66
2018-05-15T00:26:32.943Z,20.70
2018-05-15T00:27:32.875Z,20.72
2018-05-15T00:28:32.854Z,20.72
2018-05-15T00:29:32.793Z,20.70
2018-05-15T00:30:32.747Z,20.78
2018-05-15T00:31:32.721Z,20.78
2018-05-15T00:32:32.676Z,20.80
2018-05-15T00:33:32.627Z,20.72
2018-05-15T00:34:32.588Z,20.72
2018-05-15T00:35:32.522Z,20.74
2018-05-15T00:36:32.499Z,20.78
2018-05-15T00:37:32.438Z,20.59
2018-05-15T00:38:32.389Z,20.59
2018-05-15T00:39:32.336Z,20.58
2018-05-15T00:40:32.311Z,20.55
2018-05-15T00:41:32.246Z,20.56
2018-05-15T00:42:32.222Z,20.62
2018-05-15T00:43:32.181Z,20.63
2018-05-15T00:44:32.111Z,20.63
2018-05-15T00:45:32.094Z,20.59
2018-05-15T00:46:32.027Z,20.67
2018-05-15T00:47:32.014Z,20.78
2018-05-15T00:48:31.956Z,20.67
2018-05-15T00:49:31.905Z,20.75
2018-05-15T00:50:31.871Z,20.69
2018-05-15T00:51:31.802Z,20.72
2018-05-15T00:52:31.791Z,20.78
2018-05-15T00:53:31.717Z,20.78
2018-05-15T00:54:31.680Z,20.75
2018-05-15T00:55:31.654Z,20.74
2018-05-15T00:56:31.598Z,20.81
2018-05-15T00:57:31.540Z,20.69
2018-05-15T00:58:31.494Z,20.80
2018-05-15T00:59:31.452Z,20.63
2018-05-15T01:00:31.411Z,20.69
2018-05-15T01:01:31.397Z,20.72
2018-05-15T01:02:31.301Z,20.77
2018-05-15T01:03:31.267Z,20.72
2018-05-15T01:04:31.226Z,20.70
2018-05-15T01:05:31.184Z,20.72
2018-05-15T01:06:31.141Z,20.69
2018-05-15T01:07:31.101Z,20.69
2018-05-15T01:08:31.042Z,20.65
2018-05-15T01:09:31.010Z,20.67
2018-05-15T01:10:30.939Z,20.66
2018-05-15T01:11:30.937Z,20.74
2018-05-15T01:12:30.865Z,20.72
2018-05-15T01:13:30.859Z,20.78
2018-05-15T01:14:30.775Z,20.78
2018-05-15T01:15:30.712Z,20.63
2018-05-15T01:16:30.685Z,20.67
2018-05-15T01:17:30.645Z,20.65
2018-05-15T01:18:30.606Z,20.55
2018-05-15T01:19:30.549Z,20.62
2018-05-15T01:20:30.498Z,20.69
2018-05-15T01:21:30.458Z,20.67
2018-05-15T01:22:30.429Z,20.65
2018-05-15T01:23:30.383Z,20.60
2018-05-15T01:24:30.339Z,20.62
2018-05-15T01:25:30.282Z,20.59
2018-05-15T01:26:30.224Z,20.63
2018-05-15T01:27:30.204Z,20.66
2018-05-15T01:28:30.160Z,20.60
2018-05-15T01:29:30.094Z,20.59
2018-05-15T01:30:30.056Z,20.60
2018-05-15T01:31:30.011Z,20.60
2018-05-15T01:32:29.973Z,20.63
2018-05-15T01:33:29.933Z,20.63
2018-05-15T01:34:29.905Z,20.62
2018-05-15T01:35:29.875Z,20.67
2018-05-15T01:36:29.800Z,20.74
2018-05-15T01:37:29.757Z,20.75
2018-05-15T01:38:29.703Z,20.65
2018-05-15T01:39:29.658Z,20.69
2018-05-15T01:40:29.605Z,20.69
2018-05-15T01:41:29.560Z,20.80
2018-05-15T01:42:29.534Z,20.74
2018-05-15T01:43:29.489Z,20.67
2018-05-15T01:44:29.428Z,20.75
2018-05-15T01:45:29.366Z,20.77
2018-05-15T01:46:29.349Z,20.80
2018-05-15T01:47:29.289Z,20.81
2018-05-15T01:48:29.264Z,20.74
2018-05-15T01:49:29.187Z,20.74
2018-05-15T01:50:29.156Z,20.66
2018-05-15T01:51:29.130Z,20.70
2018-05-15T01:52:29.076Z,20.74
2018-05-15T01:53:29.037Z,20.70
2018-05-15T01:54:28.988Z,20.77
2018-05-15T01:55:28.951Z,20.78
2018-05-15T01:56:28.873Z,20.67
2018-05-15T01:57:28.846Z,20.77
2018-05-15T01:58:28.785Z,20.80
2018-05-15T01:59:28.764Z,20.81
2018-05-15T02:00:28.708Z,20.67
2018-05-15T02:01:28.658Z,20.63
2018-05-15T02:02:28.618Z,20.63
2018-05-15T02:03:28.599Z,20.70
2018-05-15T02:04:28.516Z,20.74
2018-05-15T02:05:28.495Z,20.66
2018-05-15T02:06:28.446Z,20.69
2018-05-15T02:07:28.395Z,20.72
2018-05-15T02:08:28.350Z,20.70
2018-05-15T02:09:28.317Z,20.67
2018-05-15T02:10:28.270Z,20.70
2018-05-15T02:11:28.201Z,20.69
2018-05-15T02:12:28.162Z,20.75
2018-05-15T02:13:28.139Z,20.67
2018-05-15T02:14:28.106Z,20.63
2018-05-15T02:15:28.048Z,20.69
2018-05-15T02:16:27.977Z,20.63
2018-05-15T02:17:27.945Z,20.66
2018-05-15T02:18:27.927Z,20.60
2018-05-15T02:19:27.853Z,20.65
2018-05-15T02:20:27.810Z,20.66
2018-05-15T02:21:27.779Z,20.55
2018-05-15T02:22:27.747Z,20.56
2018-05-15T02:23:27.700Z,20.51
2018-05-15T02:24:27.634Z,20.50
2018-05-15T02:25:27.573Z,20.51
2018-05-15T02:26:27.559Z,20.56
2018-05-15T02:27:27.491Z,20.56
2018-05-15T02:28:27.440Z,20.58
2018-05-15T02:29:27.432Z,20.52
2018-05-15T02:30:27.461Z,20.47
2018-05-15T02:31:27.342Z,20.48
2018-05-15T02:32:27.283Z,20.48
2018-05-15T02:33:27.227Z,20.43
2018-05-15T02:34:27.182Z,20.44
2018-05-15T02:35:27.136Z,20.51
2018-05-15T02:36:27.120Z,20.48
2018-05-15T02:37:27.042Z,20.44
2018-05-15T02:38:27.000Z,20.48
2018-05-15T02:39:26.969Z,20.52
2018-05-15T02:40:26.925Z,20.36
2018-05-15T02:41:26.873Z,20.47
2018-05-15T02:42:26.819Z,20.48
2018-05-15T02:43:26.788Z,20.47
2018-05-15T02:44:27.241Z,20.44
2018-05-15T02:45:26.672Z,20.47
2018-05-15T02:46:26.655Z,20.37
2018-05-15T02:47:26.627Z,20.36
2018-05-15T02:48:26.569Z,20.41
2018-05-15T02:49:26.499Z,20.48
2018-05-15T02:50:26.462Z,20.44
2018-05-15T02:51:26.432Z,20.43
2018-05-15T02:52:26.401Z,20.55
2018-05-15T02:53:26.314Z,20.43
2018-05-15T02:54:26.312Z,20.59
2018-05-15T02:55:26.245Z,20.44
2018-05-15T02:56:26.219Z,20.44
2018-05-15T02:57:26.155Z,20.51
2018-05-15T02:58:26.115Z,20.55
2018-05-15T02:59:26.073Z,20.51
2018-05-15T03:00:26.027Z,20.48
2018-05-15T03:01:25.972Z,20.41
2018-05-15T03:02:25.902Z,20.34
2018-05-15T03:03:25.874Z,20.36
2018-05-15T03:04:25.844Z,20.43
2018-05-15T03:05:25.814Z,20.36
2018-05-15T03:06:25.774Z,20.47
2018-05-15T03:07:25.708Z,20.44
2018-05-15T03:08:25.677Z,20.39
2018-05-15T03:09:25.632Z,20.51
2018-05-15T03:10:25.562Z,20.44
2018-05-15T03:11:25.541Z,20.34
2018-05-15T03:12:25.480Z,20.37
2018-05-15T03:13:25.442Z,20.26
2018-05-15T03:14:25.410Z,20.22
2018-05-15T03:15:25.378Z,20.16
2018-05-15T03:16:25.307Z,20.10
2018-05-15T03:17:25.260Z,20.19
2018-05-15T03:18:25.238Z,20.26
2018-05-15T03:19:25.167Z,20.32
2018-05-15T03:20:25.097Z,20.31
2018-05-15T03:21:25.076Z,20.32
2018-05-15T03:22:25.012Z,20.43
2018-05-15T03:23:24.976Z,20.31
2018-05-15T03:24:24.932Z,20.41
2018-05-15T03:25:24.898Z,20.41
2018-05-15T03:26:24.857Z,20.32
2018-05-15T03:27:24.792Z,20.34
2018-05-15T03:28:24.778Z,20.24
2018-05-15T03:29:24.731Z,20.26
2018-05-15T03:30:24.682Z,20.24
2018-05-15T03:31:24.644Z,20.25
2018-05-15T03:32:24.567Z,20.32
2018-05-15T03:33:24.545Z,20.25
2018-05-15T03:34:24.470Z,20.32
2018-05-15T03:35:24.420Z,20.31
2018-05-15T03:36:24.390Z,20.37
2018-05-15T03:37:24.336Z,20.34
2018-05-15T03:38:24.326Z,20.43
2018-05-15T03:39:24.238Z,20.36
2018-05-15T03:40:24.226Z,20.37
2018-05-15T03:41:24.178Z,20.48
2018-05-15T03:42:24.109Z,20.26
2018-05-15T03:43:24.059Z,20.43
2018-05-15T03:44:24.046Z,20.31
2018-05-15T03:45:23.979Z,20.21
2018-05-15T03:46:23.955Z,20.16
2018-05-15T03:47:23.886Z,20.18
2018-05-15T03:48:23.858Z,20.16
2018-05-15T03:49:23.795Z,20.16
2018-05-15T03:50:23.772Z,20.25
2018-05-15T03:51:23.740Z,20.19
2018-05-15T03:52:23.666Z,20.37
2018-05-15T03:53:23.621Z,20.37
2018-05-15T03:54:23.577Z,20.36
2018-05-15T03:55:23.559Z,20.36
2018-05-15T03:56:23.479Z,20.22
2018-05-15T03:57:23.443Z,20.25
2018-05-15T03:58:23.388Z,20.32
2018-05-15T03:59:23.375Z,20.32
2018-05-15T04:00:23.321Z,20.32
2018-05-15T04:01:23.254Z,20.32
2018-05-15T04:02:23.384Z,20.31
2018-05-15T04:03:23.164Z,20.26
2018-05-15T04:04:23.118Z,20.13
2018-05-15T04:05:23.095Z,20.22
2018-05-15T04:06:23.583Z,20.24
2018-05-15T04:07:22.987Z,20.24
2018-05-15T04:08:22.947Z,20.29
2018-05-15T04:09:22.891Z,20.29
2018-05-15T04:10:22.852Z,20.18
2018-05-15T04:11:22.790Z,20.18
2018-05-15T04:12:22.781Z,20.14
2018-05-15T04:13:22.711Z,20.13
2018-05-15T04:14:22.691Z,20.14
2018-05-15T04:15:22.634Z,20.18
2018-05-15T04:16:22.611Z,20.14
2018-05-15T04:17:22.526Z,20.19
2018-05-15T04:18:22.491Z,20.24
2018-05-15T04:19:22.461Z,20.19
2018-05-15T04:20:22.415Z,20.22
2018-05-15T04:21:22.398Z,20.25
2018-05-15T04:22:22.328Z,20.24
2018-05-15T04:23:22.253Z,20.22
2018-05-15T04:24:22.222Z,20.21
2018-05-15T04:25:22.186Z,20.26
2018-05-15T04:26:22.146Z,20.28
2018-05-15T04:27:22.091Z,20.26
2018-05-15T04:28:22.061Z,20.24
2018-05-15T04:29:21.992Z,20.22
2018-05-15T04:30:21.954Z,20.25
2018-05-15T04:31:21.914Z,20.22
2018-05-15T04:32:21.860Z,20.26
2018-05-15T04:33:21.828Z,20.26
2018-05-15T04:34:21.772Z,20.28
2018-05-15T04:35:21.835Z,20.24
2018-05-15T04:36:21.679Z,20.25
2018-05-15T04:37:21.632Z,20.29
2018-05-15T04:38:21.591Z,20.25
2018-05-15T04:39:21.572Z,20.25
2018-05-15T04:40:21.513Z,20.29
2018-05-15T04:41:21.471Z,20.18
2018-05-15T04:42:21.437Z,20.18
2018-05-15T04:43:21.436Z,20.16
2018-05-15T04:44:21.320Z,20.10
2018-05-15T04:45:21.301Z,20.07
2018-05-15T04:46:21.241Z,20.14
2018-05-15T04:47:21.223Z,20.10
2018-05-15T04:48:21.677Z,20.16
2018-05-15T04:49:21.110Z,20.06
2018-05-15T04:50:21.061Z,20.07
2018-05-15T04:51:20.988Z,20.06
2018-05-15T04:52:20.950Z,20.07
2018-05-15T04:53:20.904Z,20.09
2018-05-15T04:54:20.899Z,20.02
2018-05-15T04:55:20.836Z,19.96
2018-05-15T04:56:20.803Z,20.06
2018-05-15T04:57:20.739Z,20.03
2018-05-15T04:58:20.679Z,20.02
2018-05-15T04:59:20.642Z,19.88
2018-05-15T05:00:20.597Z,20.06
2018-05-15T05:01:20.578Z,20.03
2018-05-15T05:02:20.533Z,19.96
2018-05-15T05:03:20.448Z,20.07
2018-05-15T05:04:20.419Z,20.07
2018-05-15T05:05:20.368Z,20.09
2018-05-15T05:06:20.331Z,20.03
2018-05-15T05:07:20.297Z,19.99
2018-05-15T05:08:20.261Z,19.85
2018-05-15T05:09:20.176Z,19.91
2018-05-15T05:10:20.175Z,19.91
2018-05-15T05:11:20.107Z,19.85
2018-05-15T05:12:20.046Z,19.95
2018-05-15T05:13:20.009Z,19.81
2018-05-15T05:14:19.977Z,19.92
2018-05-15T05:15:19.904Z,19.99
2018-05-15T05:16:19.879Z,19.89
2018-05-15T05:17:19.820Z,19.96
2018-05-15T05:18:19.792Z,19.95
2018-05-15T05:19:19.734Z,19.96
2018-05-15T05:20:19.693Z,20.03
2018-05-15T05:21:19.649Z,19.96
2018-05-15T05:22:19.605Z,19.92
2018-05-15T05:23:19.553Z,20.04
2018-05-15T05:24:19.511Z,20.06
2018-05-15T05:25:19.462Z,19.96
2018-05-15T05:26:19.408Z,19.99
2018-05-15T05:27:19.367Z,19.92
2018-05-15T05:28:19.342Z,19.84
2018-05-15T05:29:19.281Z,19.92
2018-05-15T05:30:19.268Z,19.79
2018-05-15T05:31:19.201Z,19.86
2018-05-15T05:32:19.134Z,19.86
2018-05-15T05:33:19.175Z,19.89
2018-05-15T05:34:19.041Z,19.88
2018-05-15T05:35:19.032Z,19.99
2018-05-15T05:36:18.954Z,19.94
2018-05-15T05:37:18.915Z,19.96
2018-05-15T05:38:18.876Z,20.02
2018-05-15T05:39:18.864Z,20.00
2018-05-15T05:40:18.787Z,19.96
2018-05-15T05:41:18.757Z,19.95
2018-05-15T05:42:18.682Z,20.07
2018-05-15T05:43:18.683Z,20.07
2018-05-15T05:44:18.624Z,20.10
2018-05-15T05:45:18.586Z,20.09
2018-05-15T05:46:18.513Z,20.14
2018-05-15T05:47:18.469Z,20.09
2018-05-15T05:48:18.436Z,20.10
2018-05-15T05:49:28.629Z,20.16
2018-05-15T05:50:18.323Z,20.19
2018-05-15T05:51:18.289Z,20.10
2018-05-15T05:52:18.255Z,20.11
2018-05-15T05:53:18.201Z,20.07
2018-05-15T05:54:18.140Z,20.10
2018-05-15T05:55:18.136Z,19.96
2018-05-15T05:56:18.065Z,20.14
2018-05-15T05:57:18.044Z,20.10
2018-05-15T05:58:17.984Z,19.94
2018-05-15T05:59:17.954Z,20.02
2018-05-15T06:00:17.878Z,20.10
2018-05-15T06:01:17.824Z,19.96
2018-05-15T06:02:17.793Z,20.06
2018-05-15T06:03:17.773Z,20.11
2018-05-15T06:04:17.688Z,20.07
2018-05-15T06:05:17.672Z,20.11
2018-05-15T06:06:17.612Z,20.03
2018-05-15T06:07:17.614Z,20.06
2018-05-15T06:08:17.537Z,20.11
2018-05-15T06:09:17.476Z,20.00
2018-05-15T06:10:17.422Z,20.06
2018-05-15T06:11:17.400Z,20.00
2018-05-15T06:12:17.368Z,19.86
2018-05-15T06:13:17.325Z,19.92
2018-05-15T06:14:17.280Z,19.95
2018-05-15T06:15:17.218Z,19.91
2018-05-15T06:16:17.166Z,19.99
2018-05-15T06:17:17.129Z,20.04
2018-05-15T06:18:17.088Z,19.96
2018-05-15T06:19:17.008Z,19.96
2018-05-15T06:20:16.978Z,19.95
2018-05-15T06:21:16.935Z,19.96
2018-05-15T06:22:16.904Z,19.96
2018-05-15T06:23:16.875Z,20.04
2018-05-15T06:24:16.807Z,20.06
2018-05-15T06:25:16.774Z,20.04
2018-05-15T06:26:16.690Z,19.96
2018-05-15T06:27:16.651Z,19.99
2018-05-15T06:28:16.651Z,19.91
2018-05-15T06:29:16.561Z,19.86
2018-05-15T06:30:16.555Z,19.86
2018-05-15T06:31:16.482Z,20.00
2018-05-15T06:32:16.435Z,19.99
2018-05-15T06:33:16.393Z,19.92
2018-05-15T06:34:16.355Z,20.00
2018-05-15T06:35:16.313Z,19.89
2018-05-15T06:36:16.284Z,19.95
2018-05-15T06:37:16.232Z,19.82
2018-05-15T06:38:16.148Z,19.89
2018-05-15T06:39:16.129Z,19.91
2018-05-15T06:40:16.085Z,19.85
2018-05-15T06:41:16.038Z,19.88
2018-05-15T06:42:16.024Z,19.92
2018-05-15T06:43:15.939Z,19.99
2018-05-15T06:44:15.929Z,19.86
2018-05-15T06:45:15.831Z,19.94
2018-05-15T06:46:15.787Z,19.92
2018-05-15T06:47:15.773Z,19.84
2018-05-15T06:48:15.707Z,19.81
2018-05-15T06:49:15.678Z,19.94
2018-05-15T06:50:15.610Z,19.82
2018-05-15T06:51:15.585Z,19.94
2018-05-15T06:52:15.522Z,19.96
2018-05-15T06:53:15.477Z,19.95
2018-05-15T06:54:15.475Z,19.94
2018-05-15T06:55:15.423Z,20.02
2018-05-15T06:56:15.340Z,19.91
2018-05-15T06:57:15.304Z,19.82
2018-05-15T06:58:15.261Z,19.94
2018-05-15T06:59:15.198Z,19.92
2018-05-15T07:00:15.174Z,19.82
2018-05-15T07:01:15.139Z,19.82
2018-05-15T07:02:15.093Z,19.84
2018-05-15T07:03:15.048Z,19.92
2018-05-15T07:04:15.006Z,19.81
2018-05-15T07:05:14.952Z,19.77
2018-05-15T07:06:14.914Z,19.79
2018-05-15T07:07:14.856Z,19.71
2018-05-15T07:08:14.835Z,19.64
2018-05-15T07:09:14.762Z,19.64
2018-05-15T07:10:14.733Z,19.77
2018-05-15T07:11:14.673Z,19.70
2018-05-15T07:12:14.655Z,19.76
2018-05-15T07:13:14.579Z,19.84
2018-05-15T07:14:14.536Z,19.77
2018-05-15T07:15:14.520Z,19.69
2018-05-15T07:16:18.128Z,19.67
2018-05-15T07:17:14.388Z,19.66
2018-05-15T07:18:14.368Z,19.63
2018-05-15T07:19:14.408Z,19.66
2018-05-15T07:20:14.267Z,19.59
2018-05-15T07:21:14.241Z,19.64
2018-05-15T07:22:14.166Z,19.64
2018-05-15T07:23:14.135Z,19.63
2018-05-15T07:24:14.071Z,19.66
2018-05-15T07:25:14.066Z,19.62
2018-05-15T07:26:13.978Z,19.55
2018-05-15T07:27:14.002Z,19.59
2018-05-15T07:28:13.938Z,19.59
2018-05-15T07:29:13.864Z,19.66
2018-05-15T07:30:13.812Z,19.51
2018-05-15T07:31:13.774Z,19.63
2018-05-15T07:32:13.750Z,19.63
2018-05-15T07:33:13.713Z,19.63
2018-05-15T07:34:13.627Z,19.64
2018-05-15T07:35:13.570Z,19.66
2018-05-15T07:36:13.565Z,19.67
2018-05-15T07:37:13.508Z,19.69
2018-05-15T07:38:13.470Z,19.77
2018-05-15T07:39:13.410Z,19.73
2018-05-15T07:40:13.419Z,19.67
2018-05-15T07:41:13.320Z,19.54
2018-05-15T07:42:13.287Z,19.55
2018-05-15T07:43:13.235Z,19.56
2018-05-15T07:44:13.176Z,19.63
2018-05-15T07:45:13.131Z,19.58
2018-05-15T07:46:13.096Z,19.51
2018-05-15T07:47:13.047Z,19.59
2018-05-15T07:48:13.057Z,19.66
2018-05-15T07:49:12.962Z,19.66
2018-05-15T07:50:12.935Z,19.69
2018-05-15T07:51:12.890Z,19.67
2018-05-15T07:52:12.809Z,19.67
2018-05-15T07:53:12.768Z,19.73
2018-05-15T07:54:12.753Z,19.67
2018-05-15T07:55:12.675Z,19.73
2018-05-15T07:56:12.645Z,19.67
2018-05-15T07:57:12.573Z,19.69
2018-05-15T07:58:12.534Z,19.64
2018-05-15T07:59:12.521Z,19.71
2018-05-15T08:00:12.452Z,19.59
2018-05-15T08:01:12.442Z,19.66
2018-05-15T08:02:12.414Z,19.64
2018-05-15T08:03:12.329Z,19.51
2018-05-15T08:04:12.282Z,19.63
2018-05-15T08:05:12.262Z,19.58
2018-05-15T08:06:12.183Z,19.63
2018-05-15T08:07:12.166Z,19.64
2018-05-15T08:08:12.103Z,19.64
2018-05-15T08:09:12.029Z,19.56
2018-05-15T08:10:11.990Z,19.63
2018-05-15T08:11:11.964Z,19.62
2018-05-15T08:12:11.892Z,19.58
2018-05-15T08:13:11.888Z,19.54
2018-05-15T08:14:11.824Z,19.59
2018-05-15T08:15:11.777Z,19.64
2018-05-15T08:16:11.711Z,19.66
2018-05-15T08:17:11.694Z,19.59
2018-05-15T08:18:11.639Z,19.63
2018-05-15T08:19:11.601Z,19.71
2018-05-15T08:20:11.559Z,19.70
2018-05-15T08:21:11.484Z,19.67
2018-05-15T08:22:11.507Z,19.71
2018-05-15T08:23:11.400Z,19.64
2018-05-15T08:24:11.359Z,19.66
2018-05-15T08:25:11.303Z,19.66
2018-05-15T08:26:11.288Z,19.55
2018-05-15T08:27:11.239Z,19.63
2018-05-15T08:28:11.172Z,19.59
2018-05-15T08:29:11.121Z,19.48
2018-05-15T08:30:11.078Z,19.59
2018-05-15T08:31:11.036Z,19.62
2018-05-15T08:32:11.007Z,19.58
2018-05-15T08:33:10.964Z,19.63
2018-05-15T08:34:10.892Z,19.62
2018-05-15T08:35:10.875Z,19.62
2018-05-15T08:36:10.855Z,19.64
2018-05-15T08:37:10.782Z,19.58
2018-05-15T08:38:10.726Z,19.71
2018-05-15T08:39:10.675Z,19.59
2018-05-15T08:40:10.648Z,19.69
2018-05-15T08:41:10.597Z,19.64
2018-05-15T08:42:10.538Z,19.66
2018-05-15T08:43:10.508Z,19.67
2018-05-15T08:44:10.435Z,19.67
2018-05-15T08:45:10.424Z,19.67
2018-05-15T08:46:10.365Z,19.74
2018-05-15T08:47:10.344Z,19.82
2018-05-15T08:48:10.299Z,19.70
2018-05-15T08:49:10.243Z,19.76
2018-05-15T08:50:10.196Z,19.63
2018-05-15T08:51:10.146Z,19.67
2018-05-15T08:52:10.120Z,19.70
2018-05-15T08:53:10.095Z,19.74
2018-05-15T08:54:09.986Z,19.71
2018-05-15T08:55:09.954Z,19.71
2018-05-15T08:56:09.911Z,19.71
2018-05-15T08:57:09.864Z,19.69
2018-05-15T08:58:09.835Z,19.74
2018-05-15T08:59:09.777Z,19.64
2018-05-15T09:00:09.724Z,19.79
2018-05-15T09:01:09.698Z,19.66
2018-05-15T09:02:09.646Z,19.79
2018-05-15T09:03:09.606Z,19.81
2018-05-15T09:04:09.581Z,19.64
2018-05-15T09:05:09.542Z,19.76
2018-05-15T09:06:09.446Z,19.84
2018-05-15T09:07:09.439Z,19.66
2018-05-15T09:08:09.370Z,19.81
2018-05-15T09:09:09.336Z,19.82
2018-05-15T09:10:09.279Z,19.85
2018-05-15T09:11:09.264Z,19.81
2018-05-15T09:12:09.187Z,19.79
2018-05-15T09:13:09.169Z,19.85
2018-05-15T09:14:09.100Z,19.82
2018-05-15T09:15:09.074Z,19.86
2018-05-15T09:16:09.033Z,19.85
2018-05-15T09:17:08.974Z,19.91
2018-05-15T09:18:08.931Z,19.89
2018-05-15T09:19:08.897Z,19.96
2018-05-15T09:20:08.840Z,20.02
2018-05-15T09:21:08.813Z,19.91
2018-05-15T09:22:08.748Z,19.99
2018-05-15T09:23:08.698Z,19.96
2018-05-15T09:24:08.644Z,19.88
2018-05-15T09:25:08.619Z,19.92
2018-05-15T09:26:08.554Z,20.00
2018-05-15T09:27:08.522Z,20.06
2018-05-15T09:28:08.484Z,20.00
2018-05-15T09:29:08.420Z,19.95
2018-05-15T09:30:08.385Z,19.95
2018-05-15T09:31:08.353Z,19.92
2018-05-15T09:32:08.298Z,19.91
2018-05-15T09:33:08.266Z,19.86
2018-05-15T09:34:08.198Z,19.89
2018-05-15T09:35:08.170Z,19.82
2018-05-15T09:36:08.092Z,19.73
2018-05-15T09:37:08.068Z,19.91
2018-05-15T09:38:08.008Z,19.79
2018-05-15T09:39:07.985Z,19.74
2018-05-15T09:40:07.907Z,19.82
2018-05-15T09:41:07.902Z,19.82
2018-05-15T09:42:07.826Z,19.82
2018-05-15T09:43:07.787Z,19.67
2018-05-15T09:44:07.725Z,19.84
2018-05-15T09:45:07.684Z,19.84
2018-05-15T09:46:07.664Z,19.85
2018-05-15T09:47:07.620Z,19.84
2018-05-15T09:48:07.559Z,19.88
2018-05-15T09:49:07.522Z,19.81
2018-05-15T09:50:07.485Z,19.84
2018-05-15T09:51:07.427Z,19.81
2018-05-15T09:52:07.375Z,19.84
2018-05-15T09:53:07.365Z,19.71
2018-05-15T09:54:07.328Z,19.81
2018-05-15T09:55:07.231Z,19.74
2018-05-15T09:56:07.227Z,19.70
2018-05-15T09:57:07.168Z,19.77
2018-05-15T09:58:07.117Z,19.67
2018-05-15T09:59:07.064Z,19.66
2018-05-15T10:00:07.018Z,19.67
2018-05-15T10:01:06.987Z,19.76
2018-05-15T10:02:06.959Z,19.73
2018-05-15T10:03:06.871Z,19.77
2018-05-15T10:04:06.842Z,19.76
2018-05-15T10:05:06.807Z,19.84
2018-05-15T10:06:06.735Z,19.81
2018-05-15T10:07:06.733Z,19.82
2018-05-15T10:08:06.682Z,19.84
2018-05-15T10:09:06.600Z,19.92
2018-05-15T10:10:06.577Z,19.79
